createdAt,value
2018-10-12T00:00:12.210Z,15.70
2018-10-12T00:02:14.519Z,15.70
2018-10-12T00:04:16.699Z,15.60
2018-10-12T00:06:18.837Z,15.60
2018-10-12T00:08:21.403Z,15.60
2018-10-12T00:10:23.615Z,15.60
2018-10-12T00:12:25.803Z,15.50
2018-10-12T00:14:28.310Z,15.60
2018-10-12T00:16:30.458Z,15.60
2018-10-12T00:18:32.610Z,15.60
2018-10-12T00:20:35.095Z,15.50
2018-10-12T00:22:37.384Z,15.50
2018-10-12T00:24:39.552Z,15.30
2018-10-12T00:26:41.854Z,15.30
2018-10-12T00:28:44.076Z,15.20
2018-10-12T00:30:46.258Z,15.30
2018-10-12T00:32:48.698Z,15.30
2018-10-12T00:34:50.862Z,15.40
2018-10-12T00:36:53.066Z,15.30
2018-10-12T00:38:55.893Z,15.20
2018-10-12T00:40:58.017Z,15.20
2018-10-12T00:43:00.378Z,15.20
2018-10-12T00:45:19.076Z,15.20
2018-10-12T00:48:15.548Z,15.10
2018-10-12T00:50:17.779Z,15.00
2018-10-12T00:52:19.950Z,15.00
2018-10-12T00:54:28.785Z,15.00
2018-10-12T00:56:30.950Z,14.90
2018-10-12T00:58:33.399Z,14.80
2018-10-12T01:00:35.606Z,14.80
2018-10-12T01:02:37.807Z,14.90
2018-10-12T01:04:40.382Z,14.80
2018-10-12T01:06:42.565Z,14.80
2018-10-12T01:08:44.747Z,14.70
2018-10-12T01:10:46.910Z,14.70
2018-10-12T01:12:49.106Z,14.80
2018-10-12T01:14:51.294Z,14.80
2018-10-12T01:16:53.494Z,14.70
2018-10-12T01:18:55.677Z,14.60
2018-10-12T01:20:57.911Z,14.70
2018-10-12T01:23:00.311Z,14.70
2018-10-12T01:25:03.654Z,14.70
2018-10-12T01:27:05.838Z,14.70
2018-10-12T01:29:08.427Z,14.70
2018-10-12T01:31:10.607Z,14.70
2018-10-12T01:33:12.770Z,14.70
2018-10-12T01:35:14.979Z,14.60
2018-10-12T01:37:17.783Z,14.60
2018-10-12T01:39:19.987Z,14.60
2018-10-12T01:41:22.131Z,14.60
2018-10-12T01:43:24.292Z,14.50
2018-10-12T01:45:26.876Z,14.50
2018-10-12T01:47:29.075Z,14.50
2018-10-12T01:49:31.215Z,14.50
2018-10-12T01:51:33.407Z,14.50
2018-10-12T01:53:35.872Z,14.50
2018-10-12T01:55:38.051Z,14.40
2018-10-12T01:57:40.249Z,14.40
2018-10-12T01:59:42.499Z,14.30
2018-10-12T02:01:44.697Z,14.40
2018-10-12T02:03:46.891Z,14.40
2018-10-12T02:05:49.039Z,14.40
2018-10-12T02:07:51.187Z,14.30
2018-10-12T02:09:53.496Z,14.40
2018-10-12T02:11:55.694Z,14.40
2018-10-12T02:13:57.847Z,14.40
2018-10-12T02:16:00.341Z,14.40
2018-10-12T02:18:02.571Z,14.40
2018-10-12T02:20:04.754Z,14.30
2018-10-12T02:22:06.972Z,14.30
2018-10-12T02:24:09.422Z,14.30
2018-10-12T02:26:11.603Z,14.30
2018-10-12T02:28:13.976Z,14.30
2018-10-12T02:30:16.183Z,14.20
2018-10-12T02:32:18.388Z,14.30
2018-10-12T02:34:20.626Z,14.30
2018-10-12T02:36:23.151Z,14.20
2018-10-12T02:38:25.751Z,14.30
2018-10-12T02:40:27.964Z,14.20
2018-10-12T02:42:30.136Z,14.20
2018-10-12T02:44:32.291Z,14.10
2018-10-12T02:46:34.640Z,14.20
2018-10-12T02:48:36.858Z,14.10
2018-10-12T02:50:39.042Z,14.00
2018-10-12T02:52:41.227Z,14.00
2018-10-12T02:54:43.455Z,14.10
2018-10-12T02:56:45.808Z,14.10
2018-10-12T02:58:48.710Z,14.10
2018-10-12T03:00:51.267Z,14.10
2018-10-12T03:02:53.463Z,14.10
2018-10-12T03:04:55.695Z,14.00
2018-10-12T03:06:57.987Z,14.00
2018-10-12T03:09:00.240Z,14.10
2018-10-12T03:11:02.393Z,14.10
2018-10-12T03:13:04.559Z,14.10
2018-10-12T03:15:06.698Z,14.10
2018-10-12T03:17:08.855Z,14.00
2018-10-12T03:19:11.032Z,14.00
2018-10-12T03:21:13.210Z,14.00
2018-10-12T03:23:15.546Z,13.90
2018-10-12T03:25:17.768Z,13.90
2018-10-12T03:27:20.058Z,14.00
2018-10-12T03:29:22.263Z,13.90
2018-10-12T03:31:24.512Z,14.00
2018-10-12T03:33:27.332Z,14.00
2018-10-12T03:35:29.638Z,14.00
2018-10-12T03:37:31.765Z,14.10
2018-10-12T03:39:33.933Z,14.00
2018-10-12T03:41:36.138Z,14.00
2018-10-12T03:43:38.503Z,14.00
2018-10-12T03:45:41.446Z,14.00
2018-10-12T03:47:43.851Z,14.10
2018-10-12T03:49:46.028Z,14.20
2018-10-12T03:51:48.228Z,14.20
2018-10-12T03:53:50.366Z,14.10
2018-10-12T03:55:52.590Z,14.20
2018-10-12T03:57:54.750Z,14.20
2018-10-12T03:59:57.185Z,14.10
2018-10-12T04:01:59.492Z,14.20
2018-10-12T04:04:01.649Z,14.20
2018-10-12T04:06:03.928Z,14.10
2018-10-12T04:08:06.127Z,14.00
2018-10-12T04:10:08.305Z,14.00
2018-10-12T04:12:10.478Z,14.00
2018-10-12T04:14:12.640Z,14.10
2018-10-12T04:16:14.787Z,14.00
2018-10-12T04:18:17.344Z,14.00
2018-10-12T04:20:19.494Z,14.00
2018-10-12T04:22:23.528Z,14.00
2018-10-12T04:24:25.875Z,14.00
2018-10-12T04:26:28.005Z,13.90
2018-10-12T04:28:30.146Z,13.90
2018-10-12T04:30:32.839Z,13.90
2018-10-12T04:32:34.986Z,13.90
2018-10-12T04:34:37.452Z,13.90
2018-10-12T04:36:39.927Z,13.80
2018-10-12T04:38:53.652Z,13.90
2018-10-12T04:41:03.115Z,13.80
2018-10-12T04:43:05.311Z,13.80
2018-10-12T04:45:07.519Z,13.80
2018-10-12T04:47:09.757Z,13.70
2018-10-12T04:49:14.290Z,13.70
2018-10-12T04:51:19.639Z,13.80
2018-10-12T04:53:21.881Z,13.70
2018-10-12T04:55:24.071Z,13.80
2018-10-12T04:57:26.226Z,13.80
2018-10-12T04:59:28.434Z,13.80
2018-10-12T05:01:30.644Z,13.70
2018-10-12T05:03:32.967Z,13.60
2018-10-12T05:05:35.137Z,13.50
2018-10-12T05:07:37.413Z,13.50
2018-10-12T05:09:39.515Z,13.50
2018-10-12T05:11:42.115Z,13.50
2018-10-12T05:13:44.291Z,13.50
2018-10-12T05:15:46.685Z,13.50
2018-10-12T05:17:48.893Z,13.40
2018-10-12T05:19:51.041Z,13.40
2018-10-12T05:21:53.370Z,13.40
2018-10-12T05:23:55.755Z,13.40
2018-10-12T05:25:58.510Z,13.50
2018-10-12T05:28:00.735Z,13.40
2018-10-12T05:30:02.961Z,13.50
2018-10-12T05:32:05.170Z,13.50
2018-10-12T05:34:07.496Z,13.50
2018-10-12T05:36:09.725Z,13.60
2018-10-12T05:38:11.854Z,13.60
2018-10-12T05:40:14.987Z,13.60
2018-10-12T05:42:17.118Z,13.50
2018-10-12T05:44:19.712Z,13.60
2018-10-12T05:46:21.930Z,13.60
2018-10-12T05:48:35.694Z,13.60
2018-10-12T05:50:38.139Z,13.60
2018-10-12T05:52:40.625Z,13.80
2018-10-12T05:54:42.939Z,13.80
2018-10-12T05:56:45.271Z,13.70
2018-10-12T05:58:47.566Z,13.70
2018-10-12T06:00:50.214Z,13.70
2018-10-12T06:02:52.691Z,13.80
2018-10-12T06:04:55.116Z,13.70
2018-10-12T06:06:57.347Z,13.70
2018-10-12T06:08:59.673Z,13.70
2018-10-12T06:11:01.902Z,13.70
2018-10-12T06:13:04.243Z,13.80
2018-10-12T06:15:06.486Z,13.70
2018-10-12T06:17:08.817Z,13.70
2018-10-12T06:19:11.056Z,13.80
2018-10-12T06:21:13.375Z,13.80
2018-10-12T06:23:15.613Z,13.80
2018-10-12T06:25:17.866Z,13.80
2018-10-12T06:27:20.270Z,13.80
2018-10-12T06:29:22.526Z,14.00
2018-10-12T06:31:24.818Z,14.10
2018-10-12T06:33:27.047Z,14.00
2018-10-12T06:35:29.469Z,14.10
2018-10-12T06:37:31.700Z,14.20
2018-10-12T06:39:34.274Z,14.20
2018-10-12T06:41:36.579Z,14.40
2018-10-12T06:43:38.672Z,14.50
2018-10-12T06:45:41.127Z,14.50
2018-10-12T06:47:43.340Z,14.50
2018-10-12T06:49:45.539Z,14.50
2018-10-12T06:51:47.735Z,14.40
2018-10-12T06:53:49.996Z,14.40
2018-10-12T06:55:52.170Z,14.60
2018-10-12T06:57:54.359Z,14.60
2018-10-12T06:59:56.621Z,14.80
2018-10-12T07:01:58.829Z,14.60
2018-10-12T07:04:01.118Z,14.70
2018-10-12T07:06:03.300Z,14.80
2018-10-12T07:08:05.483Z,14.80
2018-10-12T07:10:08.062Z,15.00
2018-10-12T07:12:10.805Z,15.10
2018-10-12T07:14:13.027Z,15.10
2018-10-12T07:16:15.675Z,15.20
2018-10-12T07:18:18.062Z,15.30
2018-10-12T07:20:20.316Z,15.30
2018-10-12T07:22:22.555Z,15.40
2018-10-12T07:24:24.901Z,15.50
2018-10-12T07:26:27.179Z,15.60
2018-10-12T07:28:29.392Z,15.70
2018-10-12T07:30:31.652Z,15.70
2018-10-12T07:32:33.899Z,15.80
2018-10-12T07:34:36.118Z,15.90
2018-10-12T07:36:38.323Z,16.00
2018-10-12T07:38:40.568Z,16.20
2018-10-12T07:40:42.804Z,16.30
2018-10-12T07:42:45.099Z,16.40
2018-10-12T07:44:47.338Z,16.30
2018-10-12T07:46:49.536Z,16.30
2018-10-12T07:48:52.146Z,16.50
2018-10-12T07:50:54.357Z,16.70
2018-10-12T07:52:56.576Z,16.70
2018-10-12T07:54:58.823Z,16.80
2018-10-12T07:57:06.650Z,16.90
2018-10-12T07:59:09.184Z,17.10
2018-10-12T08:01:11.431Z,17.20
2018-10-12T08:03:13.583Z,17.30
2018-10-12T08:05:15.834Z,17.30
2018-10-12T08:07:18.564Z,17.40
2018-10-12T08:09:20.764Z,17.90
2018-10-12T08:11:23.024Z,18.00
2018-10-12T08:13:25.559Z,18.10
2018-10-12T08:15:27.912Z,18.50
2018-10-12T08:17:30.355Z,18.40
2018-10-12T08:19:32.661Z,18.40
2018-10-12T08:21:34.895Z,18.40
2018-10-12T08:23:37.440Z,18.60
2018-10-12T08:25:39.686Z,18.90
2018-10-12T08:27:41.926Z,18.70
2018-10-12T08:29:44.173Z,18.60
2018-10-12T08:31:46.396Z,18.70
2018-10-12T08:33:48.632Z,18.90
2018-10-12T08:35:51.147Z,19.20
2018-10-12T08:37:53.376Z,19.30
2018-10-12T08:39:55.716Z,19.40
2018-10-12T08:41:58.134Z,19.30
2018-10-12T08:44:00.254Z,19.30
2018-10-12T08:46:02.938Z,19.60
2018-10-12T08:48:05.194Z,19.70
2018-10-12T08:50:07.680Z,19.70
2018-10-12T08:52:09.981Z,19.80
2018-10-12T08:54:12.248Z,19.90
2018-10-12T08:56:14.529Z,20.10
2018-10-12T08:58:17.011Z,20.20
2018-10-12T09:00:20.022Z,20.20
2018-10-12T09:02:22.219Z,20.00
2018-10-12T09:04:24.600Z,20.20
2018-10-12T09:06:26.875Z,20.20
2018-10-12T09:08:29.063Z,20.70
2018-10-12T09:10:31.703Z,20.70
2018-10-12T09:12:34.143Z,20.60
2018-10-12T09:14:36.327Z,20.80
2018-10-12T09:16:38.694Z,20.80
2018-10-12T09:18:41.043Z,20.90
2018-10-12T09:20:43.325Z,20.90
2018-10-12T09:22:45.659Z,21.20
2018-10-12T09:24:47.864Z,21.60
2018-10-12T09:26:50.093Z,21.80
2018-10-12T09:28:52.364Z,21.60
2018-10-12T09:30:54.583Z,21.50
2018-10-12T09:32:56.743Z,21.40
2018-10-12T09:34:59.523Z,21.60
2018-10-12T09:37:01.745Z,21.70
2018-10-12T09:39:04.977Z,22.00
2018-10-12T09:41:07.087Z,22.00
2018-10-12T09:43:09.269Z,21.70
2018-10-12T09:45:11.406Z,22.00
2018-10-12T09:47:13.565Z,22.40
2018-10-12T09:49:15.707Z,22.30
2018-10-12T09:51:17.839Z,22.10
2018-10-12T09:53:20.008Z,22.10
2018-10-12T09:55:22.137Z,22.10
2018-10-12T09:57:25.934Z,22.60
2018-10-12T09:59:28.102Z,22.60
2018-10-12T10:01:36.094Z,22.60
2018-10-12T10:03:44.005Z,22.50
2018-10-12T10:05:46.130Z,22.40
2018-10-12T10:07:48.680Z,22.50
2018-10-12T10:09:50.610Z,22.80
2018-10-12T10:11:52.866Z,22.80
2018-10-12T10:13:55.314Z,22.80
2018-10-12T10:15:57.346Z,22.90
2018-10-12T10:17:59.509Z,23.10
2018-10-12T10:20:01.680Z,23.20
2018-10-12T10:22:03.827Z,22.90
2018-10-12T10:24:06.068Z,23.10
2018-10-12T10:26:08.498Z,23.30
2018-10-12T10:28:10.641Z,23.30
2018-10-12T10:30:12.758Z,23.60
2018-10-12T10:32:14.898Z,23.80
2018-10-12T10:34:17.017Z,23.40
2018-10-12T10:36:19.146Z,23.40
2018-10-12T10:38:21.293Z,23.60
2018-10-12T10:40:23.576Z,23.70
2018-10-12T10:42:25.632Z,23.80
2018-10-12T10:44:27.898Z,23.80
2018-10-12T10:46:30.024Z,23.90
2018-10-12T10:48:32.144Z,24.20
2018-10-12T10:50:34.254Z,24.30
2018-10-12T10:52:36.390Z,24.60
2018-10-12T10:54:38.489Z,24.60
2018-10-12T10:56:40.618Z,24.40
2018-10-12T10:58:42.871Z,24.70
2018-10-12T11:00:45.113Z,25.00
2018-10-12T11:02:47.182Z,25.20
2018-10-12T11:04:49.323Z,24.30
2018-10-12T11:06:51.469Z,24.10
2018-10-12T11:08:53.607Z,24.50
2018-10-12T11:10:55.689Z,24.90
2018-10-12T11:12:57.964Z,25.30
2018-10-12T11:14:59.988Z,25.70
2018-10-12T11:17:02.122Z,25.20
2018-10-12T11:19:04.270Z,25.00
2018-10-12T11:21:06.395Z,24.80
2018-10-12T11:23:08.544Z,25.00
2018-10-12T11:25:10.832Z,25.10
2018-10-12T11:27:12.958Z,25.40
2018-10-12T11:29:15.083Z,25.70
2018-10-12T11:31:17.322Z,25.70
2018-10-12T11:33:19.455Z,26.20
2018-10-12T11:35:21.589Z,26.30
2018-10-12T11:37:23.772Z,25.90
2018-10-12T11:39:25.890Z,25.90
2018-10-12T11:41:28.020Z,26.30
2018-10-12T11:43:33.551Z,26.80
2018-10-12T11:45:35.670Z,27.30
2018-10-12T11:47:37.803Z,27.70
2018-10-12T11:49:39.929Z,28.40
2018-10-12T11:51:42.067Z,28.00
2018-10-12T11:53:44.190Z,28.10
2018-10-12T11:55:46.316Z,28.70
2018-10-12T11:57:48.452Z,28.90
2018-10-12T11:59:50.654Z,29.30
2018-10-12T12:01:52.769Z,29.10
2018-10-12T12:03:54.890Z,29.10
2018-10-12T12:05:57.214Z,28.80
2018-10-12T12:07:59.329Z,28.70
2018-10-12T12:10:01.502Z,28.60
2018-10-12T12:12:03.694Z,29.30
2018-10-12T12:14:05.908Z,28.90
2018-10-12T12:16:07.949Z,29.10
2018-10-12T12:18:10.108Z,29.10
2018-10-12T12:20:12.222Z,29.10
2018-10-12T12:22:14.367Z,29.50
2018-10-12T12:24:16.518Z,29.30
2018-10-12T12:26:18.644Z,30.00
2018-10-12T12:28:20.846Z,29.10
2018-10-12T12:30:23.234Z,29.50
2018-10-12T12:32:25.331Z,29.60
2018-10-12T12:34:27.510Z,30.00
2018-10-12T12:36:29.591Z,29.50
2018-10-12T12:38:31.750Z,29.40
2018-10-12T12:40:33.870Z,29.40
2018-10-12T12:42:36.251Z,29.10
2018-10-12T12:44:38.403Z,29.00
2018-10-12T12:46:40.527Z,29.00
2018-10-12T12:48:43.142Z,28.30
2018-10-12T12:50:44.920Z,28.70
2018-10-12T12:52:47.040Z,28.80
2018-10-12T12:54:49.240Z,28.50
2018-10-12T12:56:51.328Z,28.90
2018-10-12T12:58:53.442Z,28.30
2018-10-12T13:00:55.585Z,28.00
2018-10-12T13:02:57.718Z,28.30
2018-10-12T13:04:59.827Z,27.90
2018-10-12T13:07:01.995Z,28.10
2018-10-12T13:09:06.014Z,29.00
2018-10-12T13:11:08.546Z,29.80
2018-10-12T13:13:10.674Z,29.50
2018-10-12T13:15:12.790Z,28.80
2018-10-12T13:17:15.401Z,29.30
2018-10-12T13:19:17.645Z,29.90
2018-10-12T13:21:19.846Z,30.40
2018-10-12T13:23:22.271Z,30.20
2018-10-12T13:25:24.417Z,29.90
2018-10-12T13:27:26.547Z,29.80
2018-10-12T13:29:28.765Z,29.80
2018-10-12T13:31:30.909Z,30.40
2018-10-12T13:33:33.042Z,30.30
2018-10-12T13:35:35.205Z,30.30
2018-10-12T13:37:37.330Z,30.40
2018-10-12T13:39:39.461Z,30.60
2018-10-12T13:41:41.905Z,30.70
2018-10-12T13:43:44.033Z,30.80
2018-10-12T13:45:46.303Z,30.20
2018-10-12T13:47:48.430Z,30.00
2018-10-12T13:49:50.559Z,29.20
2018-10-12T13:51:52.689Z,29.00
2018-10-12T13:53:54.797Z,30.00
2018-10-12T13:55:56.908Z,30.10
2018-10-12T13:57:59.032Z,30.20
2018-10-12T14:00:01.141Z,29.70
2018-10-12T14:02:03.341Z,30.30
2018-10-12T14:04:05.467Z,29.80
2018-10-12T14:06:07.583Z,29.90
2018-10-12T14:08:09.724Z,30.20
2018-10-12T14:10:11.834Z,29.60
2018-10-12T14:12:13.995Z,30.60
2018-10-12T14:14:16.067Z,30.30
2018-10-12T14:16:18.217Z,30.90
2018-10-12T14:18:20.410Z,31.30
2018-10-12T14:20:22.479Z,30.10
2018-10-12T14:22:24.626Z,30.20
2018-10-12T14:24:26.806Z,29.70
2018-10-12T14:26:29.030Z,29.70
2018-10-12T14:28:31.162Z,30.00
2018-10-12T14:30:33.267Z,28.90
2018-10-12T14:32:35.667Z,29.10
2018-10-12T14:34:37.848Z,29.30
2018-10-12T14:36:39.920Z,29.80
2018-10-12T14:38:42.035Z,29.30
2018-10-12T14:40:44.150Z,28.70
2018-10-12T14:42:46.272Z,29.50
2018-10-12T14:44:48.415Z,29.30
2018-10-12T14:46:50.513Z,29.10
2018-10-12T14:48:52.650Z,28.30
2018-10-12T14:50:54.794Z,28.30
2018-10-12T14:52:56.968Z,27.90
2018-10-12T14:54:59.098Z,28.60
2018-10-12T14:57:01.658Z,28.60
2018-10-12T14:59:03.923Z,29.30
2018-10-12T15:01:06.037Z,29.20
2018-10-12T15:03:08.446Z,28.20
2018-10-12T15:05:10.559Z,27.90
2018-10-12T15:07:12.866Z,27.50
2018-10-12T15:09:14.974Z,27.20
2018-10-12T15:11:17.195Z,26.50
2018-10-12T15:13:19.358Z,26.20
2018-10-12T15:15:22.721Z,26.30
2018-10-12T15:17:24.890Z,26.30
2018-10-12T15:19:27.034Z,26.70
2018-10-12T15:21:29.465Z,27.10
2018-10-12T15:23:31.341Z,27.40
2018-10-12T15:25:33.461Z,27.90
2018-10-12T15:27:35.661Z,28.20
2018-10-12T15:29:38.054Z,28.20
2018-10-12T15:31:40.194Z,27.70
2018-10-12T15:33:42.318Z,27.20
2018-10-12T15:35:50.399Z,27.10
2018-10-12T15:37:52.964Z,27.40
2018-10-12T15:39:55.230Z,27.60
2018-10-12T15:41:57.427Z,27.90
2018-10-12T15:43:59.887Z,27.50
2018-10-12T15:46:02.125Z,26.60
2018-10-12T15:48:04.406Z,26.40
2018-10-12T15:50:06.635Z,26.50
2018-10-12T15:52:08.883Z,26.20
2018-10-12T15:54:11.138Z,25.80
2018-10-12T15:56:13.366Z,25.60
2018-10-12T15:58:15.538Z,25.30
2018-10-12T16:00:17.741Z,24.90
2018-10-12T16:02:20.263Z,24.60
2018-10-12T16:04:22.806Z,24.30
2018-10-12T16:06:25.074Z,24.30
2018-10-12T16:08:27.284Z,24.00
2018-10-12T16:10:29.506Z,24.00
2018-10-12T16:12:31.751Z,23.90
2018-10-12T16:14:33.986Z,23.80
2018-10-12T16:16:36.152Z,23.80
2018-10-12T16:18:38.332Z,23.70
2018-10-12T16:20:40.515Z,23.70
2018-10-12T16:22:42.765Z,23.60
2018-10-12T16:24:56.993Z,23.50
2018-10-12T16:26:59.231Z,23.50
2018-10-12T16:29:01.473Z,23.40
2018-10-12T16:31:03.667Z,23.30
2018-10-12T16:33:05.876Z,23.30
2018-10-12T16:35:08.098Z,23.20
2018-10-12T16:37:10.284Z,23.10
2018-10-12T16:39:12.533Z,23.00
2018-10-12T16:41:14.759Z,23.00
2018-10-12T16:43:17.118Z,23.00
2018-10-12T16:45:19.340Z,22.90
2018-10-12T16:47:21.721Z,22.80
2018-10-12T16:49:23.899Z,22.80
2018-10-12T16:51:26.130Z,22.70
2018-10-12T16:53:28.356Z,22.70
2018-10-12T16:55:30.575Z,22.70
2018-10-12T16:57:34.984Z,22.60
2018-10-12T16:59:37.179Z,22.50
2018-10-12T17:01:39.339Z,22.40
2018-10-12T17:03:42.151Z,22.40
2018-10-12T17:05:44.336Z,22.30
2018-10-12T17:07:46.523Z,22.30
2018-10-12T17:09:49.659Z,22.30
2018-10-12T17:11:51.850Z,22.20
2018-10-12T17:13:54.055Z,22.20
2018-10-12T17:15:56.246Z,22.10
2018-10-12T17:17:59.239Z,22.00
2018-10-12T17:20:01.467Z,22.00
2018-10-12T17:22:04.279Z,22.00
2018-10-12T17:24:06.545Z,21.90
2018-10-12T17:26:08.767Z,21.90
2018-10-12T17:28:19.424Z,22.00
2018-10-12T17:30:22.864Z,22.00
2018-10-12T17:32:25.043Z,21.80
2018-10-12T17:34:27.618Z,21.80
2018-10-12T17:36:29.892Z,21.70
2018-10-12T17:38:32.107Z,21.70
2018-10-12T17:40:35.180Z,21.70
2018-10-12T17:42:37.359Z,21.60
2018-10-12T17:44:39.606Z,21.60
2018-10-12T17:46:41.822Z,21.60
2018-10-12T17:48:44.101Z,21.60
2018-10-12T17:50:46.301Z,21.60
2018-10-12T17:52:49.043Z,21.50
2018-10-12T17:54:51.222Z,21.50
2018-10-12T17:56:53.399Z,21.50
2018-10-12T17:58:56.012Z,21.50
2018-10-12T18:00:58.210Z,21.40
2018-10-12T18:03:00.623Z,21.40
2018-10-12T18:05:02.911Z,21.30
2018-10-12T18:07:05.615Z,21.30
2018-10-12T18:09:07.942Z,21.30
2018-10-12T18:11:10.377Z,21.30
2018-10-12T18:13:12.695Z,21.20
2018-10-12T18:15:15.256Z,21.10
2018-10-12T18:17:17.463Z,21.20
2018-10-12T18:19:19.724Z,21.20
2018-10-12T18:21:21.908Z,21.10
2018-10-12T18:23:24.099Z,21.10
2018-10-12T18:25:26.588Z,21.00
2018-10-12T18:27:28.775Z,21.00
2018-10-12T18:29:30.987Z,20.90
2018-10-12T18:31:33.167Z,21.00
2018-10-12T18:33:35.347Z,20.90
2018-10-12T18:35:37.654Z,20.80
2018-10-12T18:37:39.860Z,20.80
2018-10-12T18:39:42.100Z,20.70
2018-10-12T18:41:44.347Z,20.70
2018-10-12T18:43:46.581Z,20.70
2018-10-12T18:45:48.774Z,20.60
2018-10-12T18:47:51.087Z,20.60
2018-10-12T18:49:53.283Z,20.60
2018-10-12T18:51:55.497Z,20.60
2018-10-12T18:54:04.037Z,20.50
2018-10-12T18:56:06.196Z,20.50
2018-10-12T18:58:08.399Z,20.60
2018-10-12T19:00:10.722Z,20.50
2018-10-12T19:02:12.878Z,20.50
2018-10-12T19:04:15.062Z,20.50
2018-10-12T19:06:17.362Z,20.50
2018-10-12T19:08:19.687Z,20.50
2018-10-12T19:10:22.084Z,20.40
2018-10-12T19:12:24.578Z,20.30
2018-10-12T19:14:26.838Z,20.30
2018-10-12T19:16:29.269Z,20.30
2018-10-12T19:18:31.767Z,20.30
2018-10-12T19:20:33.955Z,20.30
2018-10-12T19:22:37.839Z,20.20
2018-10-12T19:24:40.186Z,20.20
2018-10-12T19:26:42.831Z,20.20
2018-10-12T19:28:45.447Z,20.20
2018-10-12T19:30:47.585Z,20.20
2018-10-12T19:32:50.017Z,20.10
2018-10-12T19:34:52.199Z,20.10
2018-10-12T19:36:54.380Z,20.10
2018-10-12T19:38:56.979Z,20.00
2018-10-12T19:40:59.099Z,20.00
2018-10-12T19:43:01.613Z,20.00
2018-10-12T19:45:03.907Z,20.00
2018-10-12T19:47:06.100Z,20.00
2018-10-12T19:49:08.268Z,20.00
2018-10-12T19:51:10.684Z,19.90
2018-10-12T19:53:13.003Z,20.00
2018-10-12T19:55:15.232Z,19.90
2018-10-12T19:57:17.435Z,19.90
2018-10-12T19:59:19.660Z,19.90
2018-10-12T20:01:21.807Z,19.90
2018-10-12T20:03:24.035Z,19.90
2018-10-12T20:05:26.247Z,19.80
2018-10-12T20:07:28.479Z,19.80
2018-10-12T20:09:30.756Z,19.70
2018-10-12T20:11:33.175Z,19.80
2018-10-12T20:13:35.435Z,19.70
2018-10-12T20:15:37.740Z,19.70
2018-10-12T20:17:46.727Z,19.60
2018-10-12T20:19:48.957Z,19.60
2018-10-12T20:21:51.259Z,19.60
2018-10-12T20:23:53.595Z,19.60
2018-10-12T20:25:55.868Z,19.60
2018-10-12T20:27:58.108Z,19.50
2018-10-12T20:30:00.796Z,19.60
2018-10-12T20:32:04.392Z,19.60
2018-10-12T20:34:06.907Z,19.50
2018-10-12T20:36:09.126Z,19.50
2018-10-12T20:38:11.528Z,19.50
2018-10-12T20:40:13.755Z,19.40
2018-10-12T20:42:16.100Z,19.40
2018-10-12T20:44:25.162Z,19.40
2018-10-12T20:48:51.812Z,19.40
2018-10-12T20:50:54.494Z,19.30
2018-10-12T20:52:56.678Z,19.30
2018-10-12T20:54:58.839Z,19.30
2018-10-12T20:57:01.033Z,19.30
2018-10-12T20:59:03.342Z,19.30
2018-10-12T21:01:05.843Z,19.30
2018-10-12T21:03:08.027Z,19.20
2018-10-12T21:05:10.445Z,19.20
2018-10-12T21:07:12.654Z,19.20
2018-10-12T21:09:14.847Z,19.10
2018-10-12T21:11:17.037Z,19.10
2018-10-12T21:13:19.421Z,19.10
2018-10-12T21:15:22.013Z,19.00
2018-10-12T21:17:24.324Z,19.00
2018-10-12T21:19:26.792Z,19.00
2018-10-12T21:21:29.063Z,19.00
2018-10-12T21:23:31.395Z,19.00
2018-10-12T21:25:33.636Z,18.90
2018-10-12T21:27:35.953Z,18.90
2018-10-12T21:29:38.449Z,18.90
2018-10-12T21:31:40.639Z,18.80
2018-10-12T21:33:43.084Z,18.80
2018-10-12T21:35:45.339Z,18.80
2018-10-12T21:37:47.696Z,18.80
2018-10-12T21:39:50.115Z,18.80
2018-10-12T21:41:52.378Z,18.80
2018-10-12T21:43:54.559Z,18.80
2018-10-12T21:45:56.718Z,18.80
2018-10-12T21:47:58.930Z,18.70
2018-10-12T21:50:01.119Z,18.80
2018-10-12T21:52:03.360Z,18.70
2018-10-12T21:54:06.394Z,18.60
2018-10-12T21:56:08.571Z,18.60
2018-10-12T21:58:10.746Z,18.60
2018-10-12T22:00:13.178Z,18.60
2018-10-12T22:02:15.355Z,18.60
2018-10-12T22:04:17.512Z,18.50
2018-10-12T22:06:19.913Z,18.50
2018-10-12T22:08:27.773Z,18.40
2018-10-12T22:10:29.940Z,18.50
2018-10-12T22:12:32.090Z,18.40
2018-10-12T22:14:34.250Z,18.40
2018-10-12T22:16:36.435Z,18.40
2018-10-12T22:18:38.577Z,18.40
2018-10-12T22:20:41.441Z,18.30
2018-10-12T22:22:43.659Z,18.30
2018-10-12T22:24:45.847Z,18.20
2018-10-12T22:26:48.171Z,18.30
2018-10-12T22:28:50.387Z,18.30
2018-10-12T22:30:52.603Z,18.20
2018-10-12T22:32:54.858Z,18.20
2018-10-12T22:34:57.020Z,18.10
2018-10-12T22:36:59.243Z,18.20
2018-10-12T22:39:01.469Z,18.10
2018-10-12T22:41:03.655Z,18.10
2018-10-12T22:43:06.055Z,18.20
2018-10-12T22:45:08.259Z,18.20
2018-10-12T22:47:10.530Z,18.10
2018-10-12T22:49:12.863Z,18.10
2018-10-12T22:51:15.205Z,18.10
2018-10-12T22:53:17.472Z,18.10
2018-10-12T22:55:19.727Z,18.20
2018-10-12T22:57:21.894Z,18.20
2018-10-12T22:59:24.066Z,18.20
2018-10-12T23:01:26.282Z,18.00
2018-10-12T23:03:28.419Z,18.00
2018-10-12T23:05:31.748Z,18.00
2018-10-12T23:07:34.088Z,18.00
2018-10-12T23:09:36.368Z,18.00
2018-10-12T23:11:39.103Z,18.00
2018-10-12T23:13:41.335Z,18.00
2018-10-12T23:15:43.586Z,17.90
2018-10-12T23:17:46.146Z,17.90
2018-10-12T23:19:48.370Z,17.80
2018-10-12T23:21:50.601Z,17.80
2018-10-12T23:23:52.964Z,17.90
2018-10-12T23:25:55.192Z,17.90
2018-10-12T23:27:57.464Z,17.90
2018-10-12T23:29:59.784Z,17.90
2018-10-12T23:32:02.146Z,17.80
2018-10-12T23:34:06.459Z,17.80
2018-10-12T23:36:08.786Z,17.70
2018-10-12T23:38:11.035Z,17.80
2018-10-12T23:40:13.286Z,17.80
2018-10-12T23:42:15.546Z,17.70
2018-10-12T23:44:17.759Z,17.70
2018-10-12T23:46:20.020Z,17.70
2018-10-12T23:48:22.329Z,17.70
2018-10-12T23:50:24.601Z,17.60
2018-10-12T23:52:26.855Z,17.70
2018-10-12T23:54:29.111Z,17.70
2018-10-12T23:56:31.378Z,17.70
2018-10-12T23:58:34.070Z,17.60
